N1157K KSYR-
Flight info
| Callsign | N1157K |
|---|---|
| Flight time | N/A |
| Altitude | |
| Route | |
| Aircraft | M20/L-VGD/C |
Departure
| Time | 2026-05-07 17:00 |
|---|---|
| Airport | Syracuse Hancock International Airport (KSYR) |
Arrival
| Time | N/A |
|---|---|
| Airport | - |
| Time | Latitude | Longitude | Altitude | Speed | Heading |
|---|---|---|---|---|---|
| 2026-05-07 16:56 | 43.11154 | -76.13065 | 418 ft | 0 kts | 207° |
| 2026-05-07 16:56 | 43.11151 | -76.13067 | 418 ft | 4 kts | 206° |
| 2026-05-07 16:57 | 43.11078 | -76.13088 | 418 ft | 16 kts | 162° |
| 2026-05-07 16:57 | 43.10970 | -76.12966 | 419 ft | 22 kts | 130° |
| 2026-05-07 16:57 | 43.10940 | -76.12778 | 419 ft | 22 kts | 88° |
| 2026-05-07 16:57 | 43.10939 | -76.12658 | 419 ft | 0 kts | 127° |
| 2026-05-07 16:59 | 43.10878 | -76.12626 | 420 ft | 21 kts | 156° |
| 2026-05-07 16:59 | 43.10828 | -76.12442 | 419 ft | 31 kts | 86° |
| 2026-05-07 16:59 | 43.10844 | -76.11866 | 419 ft | 92 kts | 87° |
| 2026-05-07 16:59 | 43.10872 | -76.10914 | 669 ft | 109 kts | 87° |
| 2026-05-07 17:00 | 43.10898 | -76.09815 | 1021 ft | 122 kts | 86° |
| 2026-05-07 17:00 | 43.10929 | -76.08552 | 1371 ft | 143 kts | 88° |
| 2026-05-07 17:00 | 43.10941 | -76.07114 | 1675 ft | 157 kts | 85° |
| 2026-05-07 17:00 | 43.11415 | -76.05830 | 1879 ft | 157 kts | 36° |
| 2026-05-07 17:01 | 43.12450 | -76.05333 | 1916 ft | 164 kts | 6° |
| 2026-05-07 17:01 | 43.13563 | -76.05454 | 1978 ft | 165 kts | 340° |
| 2026-05-07 17:01 | 43.14610 | -76.06151 | 1974 ft | 170 kts | 332° |
| 2026-05-07 17:01 | 43.15710 | -76.06700 | 2039 ft | 167 kts | 358° |
| 2026-05-07 17:02 | 43.16835 | -76.06552 | 2275 ft | 159 kts | 7° |
| 2026-05-07 17:02 | 43.17923 | -76.06381 | 2504 ft | 156 kts | 4° |
| 2026-05-07 17:02 | 43.18994 | -76.06288 | 2737 ft | 154 kts | 2° |
| 2026-05-07 17:02 | 43.20062 | -76.06224 | 2969 ft | 153 kts | 1° |
| 2026-05-07 17:03 | 43.21111 | -76.06167 | 3243 ft | 148 kts | 1° |
| 2026-05-07 17:03 | 43.22131 | -76.06114 | 3478 ft | 150 kts | 360° |
| 2026-05-07 17:03 | 43.23222 | -76.06058 | 3482 ft | 163 kts | 0° |
| 2026-05-07 17:03 | 43.24385 | -76.05995 | 3487 ft | 170 kts | 0° |
| 2026-05-07 17:04 | 43.25587 | -76.05929 | 3493 ft | 175 kts | 0° |
| 2026-05-07 17:04 | 43.26811 | -76.05863 | 3485 ft | 179 kts | 0° |
| 2026-05-07 17:04 | 43.28063 | -76.05794 | 3490 ft | 180 kts | 0° |
| 2026-05-07 17:04 | 43.29314 | -76.05728 | 3491 ft | 180 kts | 1° |
| 2026-05-07 17:05 | 43.30565 | -76.05662 | 3483 ft | 181 kts | 0° |
| 2026-05-07 17:05 | 43.31823 | -76.05594 | 3483 ft | 180 kts | 1° |
| 2026-05-07 17:05 | 43.33073 | -76.05526 | 3487 ft | 180 kts | 0° |
| 2026-05-07 17:05 | 43.34329 | -76.05459 | 3490 ft | 181 kts | 1° |
| 2026-05-07 17:06 | 43.35586 | -76.05391 | 3489 ft | 182 kts | 0° |
| 2026-05-07 17:06 | 43.36848 | -76.05324 | 3488 ft | 181 kts | 1° |
| 2026-05-07 17:06 | 43.37682 | -76.05280 | 3489 ft | 181 kts | 1° |
| 2026-05-07 17:06 | 43.38941 | -76.05214 | 3490 ft | 181 kts | 1° |
| 2026-05-07 17:07 | 43.40201 | -76.05145 | 3489 ft | 182 kts | 0° |
| 2026-05-07 17:07 | 43.41877 | -76.05059 | 3489 ft | 184 kts | 0° |
| 2026-05-07 17:07 | 43.43153 | -76.04990 | 3489 ft | 183 kts | 1° |
| 2026-05-07 17:07 | 43.44427 | -76.04912 | 3491 ft | 183 kts | 1° |
| 2026-05-07 17:08 | 43.45289 | -76.04865 | 3480 ft | 183 kts | 1° |
| 2026-05-07 17:08 | 43.46557 | -76.04800 | 3480 ft | 182 kts | 0° |
| 2026-05-07 17:08 | 43.47825 | -76.04733 | 3497 ft | 185 kts | 1° |
| 2026-05-07 17:08 | 43.49116 | -76.04663 | 3506 ft | 186 kts | 1° |
| 2026-05-07 17:09 | 43.50410 | -76.04593 | 3479 ft | 186 kts | 0° |
| 2026-05-07 17:09 | 43.51695 | -76.04525 | 3481 ft | 184 kts | 0° |
| 2026-05-07 17:09 | 43.52969 | -76.04456 | 3479 ft | 183 kts | 1° |
| 2026-05-07 17:09 | 43.54245 | -76.04387 | 3480 ft | 183 kts | 1° |
| 2026-05-07 17:10 | 43.55537 | -76.04321 | 3489 ft | 190 kts | 1° |
| 2026-05-07 17:10 | 43.56848 | -76.04243 | 3483 ft | 186 kts | 1° |
| 2026-05-07 17:10 | 43.58132 | -76.04177 | 3497 ft | 184 kts | 0° |
| 2026-05-07 17:10 | 43.59398 | -76.04108 | 3481 ft | 185 kts | 1° |
| 2026-05-07 17:11 | 43.60675 | -76.04037 | 3491 ft | 183 kts | 0° |
| 2026-05-07 17:11 | 43.61954 | -76.03974 | 3490 ft | 185 kts | 0° |
| 2026-05-07 17:11 | 43.63233 | -76.03905 | 3487 ft | 183 kts | 1° |
| 2026-05-07 17:11 | 43.64502 | -76.03829 | 3491 ft | 182 kts | 1° |
| 2026-05-07 17:12 | 43.65768 | -76.03760 | 3480 ft | 183 kts | 0° |
| 2026-05-07 17:12 | 43.67060 | -76.03692 | 3466 ft | 189 kts | 1° |
| 2026-05-07 17:12 | 43.68356 | -76.03621 | 3501 ft | 184 kts | 1° |
| 2026-05-07 17:12 | 43.69635 | -76.03559 | 3479 ft | 183 kts | 1° |
| 2026-05-07 17:13 | 43.70902 | -76.03482 | 3500 ft | 182 kts | 1° |
| 2026-05-07 17:13 | 43.72167 | -76.03418 | 3490 ft | 181 kts | 360° |
| 2026-05-07 17:13 | 43.73432 | -76.03353 | 3486 ft | 182 kts | 1° |
| 2026-05-07 17:13 | 43.74693 | -76.03272 | 3490 ft | 181 kts | 1° |
| 2026-05-07 17:14 | 43.75953 | -76.03204 | 3492 ft | 182 kts | 1° |
| 2026-05-07 17:14 | 43.77222 | -76.03140 | 3485 ft | 184 kts | 359° |
| 2026-05-07 17:14 | 43.78500 | -76.03081 | 3488 ft | 185 kts | 1° |
| 2026-05-07 17:14 | 43.79807 | -76.02998 | 3487 ft | 190 kts | 0° |
| 2026-05-07 17:15 | 43.81124 | -76.02925 | 3475 ft | 188 kts | 0° |
| 2026-05-07 17:15 | 43.82438 | -76.02865 | 3467 ft | 188 kts | 0° |
| 2026-05-07 17:15 | 43.83729 | -76.02799 | 3466 ft | 184 kts | 0° |
| 2026-05-07 17:15 | 43.85003 | -76.02730 | 3467 ft | 182 kts | 0° |
| 2026-05-07 17:16 | 43.86269 | -76.02668 | 3482 ft | 182 kts | 360° |
| 2026-05-07 17:16 | 43.87510 | -76.02923 | 3462 ft | 180 kts | 345° |
| 2026-05-07 17:16 | 43.88713 | -76.03338 | 3471 ft | 176 kts | 345° |
| 2026-05-07 17:16 | 43.89894 | -76.03744 | 3478 ft | 175 kts | 345° |
| 2026-05-07 17:17 | 43.91072 | -76.04145 | 3472 ft | 176 kts | 344° |
| 2026-05-07 17:17 | 43.92250 | -76.04552 | 3468 ft | 174 kts | 345° |
| 2026-05-07 17:17 | 43.93414 | -76.04950 | 3468 ft | 159 kts | 345° |
| 2026-05-07 17:17 | 43.94350 | -76.05259 | 3459 ft | 122 kts | 344° |
| 2026-05-07 17:18 | 43.95176 | -76.04916 | 3023 ft | 141 kts | 35° |
| 2026-05-07 17:18 | 43.95944 | -76.04152 | 2722 ft | 133 kts | 32° |
| 2026-05-07 17:18 | 43.96705 | -76.03512 | 2341 ft | 124 kts | 27° |
| 2026-05-07 17:18 | 43.97460 | -76.02963 | 1843 ft | 121 kts | 25° |
| 2026-05-07 17:19 | 43.98182 | -76.02452 | 1432 ft | 113 kts | 41° |
| 2026-05-07 17:19 | 43.98400 | -76.01462 | 1040 ft | 110 kts | 102° |
| 2026-05-07 17:19 | 43.98270 | -76.00394 | 967 ft | 119 kts | 104° |
| 2026-05-07 17:19 | 43.98134 | -75.99306 | 1099 ft | 108 kts | 102° |
| 2026-05-07 17:20 | 43.98052 | -75.98258 | 1135 ft | 115 kts | 90° |
| 2026-05-07 17:20 | 43.98520 | -75.97447 | 1084 ft | 118 kts | 10° |
| 2026-05-07 17:20 | 43.99095 | -75.97907 | 887 ft | 99 kts | 269° |
| 2026-05-07 17:20 | 43.99106 | -75.98803 | 712 ft | 89 kts | 258° |
| 2026-05-07 17:21 | 43.99107 | -75.99599 | 569 ft | 77 kts | 259° |
| 2026-05-07 17:21 | 43.99124 | -76.00344 | 383 ft | 77 kts | 266° |
| 2026-05-07 17:21 | 43.99148 | -76.00946 | 330 ft | 47 kts | 265° |
| 2026-05-07 17:21 | 43.99170 | -76.01448 | 349 ft | 73 kts | 269° |
| 2026-05-07 17:22 | 43.99223 | -76.02314 | 485 ft | 105 kts | 271° |
| 2026-05-07 17:22 | 43.99299 | -76.03365 | 857 ft | 118 kts | 271° |
| 2026-05-07 17:22 | 43.98990 | -76.04442 | 1028 ft | 142 kts | 215° |
| 2026-05-07 17:22 | 43.98006 | -76.04496 | 1113 ft | 156 kts | 150° |
| 2026-05-07 17:23 | 43.97507 | -76.03177 | 1150 ft | 162 kts | 101° |
| 2026-05-07 17:23 | 43.97368 | -76.01636 | 1203 ft | 159 kts | 97° |
| 2026-05-07 17:23 | 43.97287 | -76.00140 | 1374 ft | 152 kts | 90° |
| 2026-05-07 17:23 | 43.97320 | -75.98677 | 1481 ft | 148 kts | 84° |
| 2026-05-07 17:24 | 43.97925 | -75.97787 | 1305 ft | 124 kts | 1° |
| 2026-05-07 17:24 | 43.98740 | -75.97814 | 1103 ft | 106 kts | 329° |
| 2026-05-07 17:24 | 43.99053 | -75.98553 | 849 ft | 82 kts | 251° |
| 2026-05-07 17:24 | 43.99089 | -75.99292 | 686 ft | 78 kts | 251° |
| 2026-05-07 17:25 | 43.99114 | -76.00038 | 533 ft | 76 kts | 255° |
| 2026-05-07 17:25 | 43.99142 | -76.00722 | 357 ft | 61 kts | 256° |
| 2026-05-07 17:25 | 43.99151 | -76.01198 | 327 ft | 50 kts | 274° |
| 2026-05-07 17:25 | 43.99187 | -76.01762 | 453 ft | 68 kts | 268° |
| 2026-05-07 17:26 | 43.99219 | -76.02501 | 592 ft | 84 kts | 268° |
| 2026-05-07 17:26 | 43.99184 | -76.03308 | 906 ft | 85 kts | 262° |
| 2026-05-07 17:26 | 43.99113 | -76.04249 | 1173 ft | 115 kts | 259° |
| 2026-05-07 17:26 | 43.98882 | -76.05425 | 1482 ft | 138 kts | 249° |
| 2026-05-07 17:27 | 43.98371 | -76.06675 | 1596 ft | 161 kts | 223° |
| 2026-05-07 17:27 | 43.97277 | -76.07170 | 1729 ft | 177 kts | 178° |
| 2026-05-07 17:27 | 43.96074 | -76.06674 | 1968 ft | 180 kts | 162° |
| 2026-05-07 17:27 | 43.94892 | -76.06352 | 2336 ft | 179 kts | 178° |
| 2026-05-07 17:28 | 43.93630 | -76.06382 | 2607 ft | 179 kts | 185° |
| 2026-05-07 17:28 | 43.92420 | -76.06465 | 2942 ft | 170 kts | 186° |
| 2026-05-07 17:28 | 43.91257 | -76.06531 | 3273 ft | 164 kts | 186° |
| 2026-05-07 17:28 | 43.90105 | -76.06594 | 3596 ft | 169 kts | 187° |
| 2026-05-07 17:29 | 43.88951 | -76.06650 | 3932 ft | 163 kts | 187° |
| 2026-05-07 17:29 | 43.87808 | -76.06709 | 4286 ft | 166 kts | 187° |
| 2026-05-07 17:29 | 43.86642 | -76.06770 | 4494 ft | 174 kts | 187° |
| 2026-05-07 17:29 | 43.85384 | -76.06846 | 4477 ft | 185 kts | 187° |
| 2026-05-07 17:30 | 43.84068 | -76.06916 | 4478 ft | 195 kts | 187° |
| 2026-05-07 17:30 | 43.82670 | -76.06981 | 4485 ft | 201 kts | 186° |
| 2026-05-07 17:30 | 43.81278 | -76.07044 | 4507 ft | 204 kts | 186° |
| 2026-05-07 17:30 | 43.79822 | -76.07120 | 4489 ft | 214 kts | 186° |
| 2026-05-07 17:31 | 43.78339 | -76.07203 | 4497 ft | 213 kts | 187° |
| 2026-05-07 17:31 | 43.76845 | -76.07286 | 4490 ft | 215 kts | 187° |
| 2026-05-07 17:31 | 43.75339 | -76.07366 | 4478 ft | 216 kts | 185° |
| 2026-05-07 17:31 | 43.73848 | -76.07426 | 4483 ft | 213 kts | 186° |
| 2026-05-07 17:32 | 43.72371 | -76.07502 | 4481 ft | 212 kts | 186° |
| 2026-05-07 17:32 | 43.70897 | -76.07582 | 4499 ft | 214 kts | 186° |
| 2026-05-07 17:32 | 43.69403 | -76.07664 | 4476 ft | 214 kts | 186° |
| 2026-05-07 17:32 | 43.67923 | -76.07736 | 4490 ft | 213 kts | 187° |
| 2026-05-07 17:33 | 43.66443 | -76.07813 | 4502 ft | 213 kts | 185° |
| 2026-05-07 17:33 | 43.64962 | -76.07884 | 4477 ft | 213 kts | 185° |
| 2026-05-07 17:33 | 43.63483 | -76.07957 | 4479 ft | 212 kts | 186° |
| 2026-05-07 17:33 | 43.62018 | -76.08053 | 4479 ft | 210 kts | 187° |
| 2026-05-07 17:34 | 43.60557 | -76.08123 | 4475 ft | 210 kts | 186° |
| 2026-05-07 17:34 | 43.59104 | -76.08188 | 4477 ft | 209 kts | 186° |
| 2026-05-07 17:34 | 43.57649 | -76.08264 | 4484 ft | 210 kts | 186° |
| 2026-05-07 17:34 | 43.56182 | -76.08342 | 4468 ft | 214 kts | 186° |
| 2026-05-07 17:35 | 43.54708 | -76.08416 | 4477 ft | 212 kts | 186° |
| 2026-05-07 17:35 | 43.53243 | -76.08496 | 4477 ft | 209 kts | 188° |
| 2026-05-07 17:35 | 43.51831 | -76.08872 | 4477 ft | 206 kts | 199° |
| 2026-05-07 17:35 | 43.50603 | -76.09745 | 4473 ft | 198 kts | 226° |
| 2026-05-07 17:36 | 43.49685 | -76.11146 | 4478 ft | 197 kts | 232° |
| 2026-05-07 17:36 | 43.48804 | -76.12591 | 4486 ft | 197 kts | 233° |
| 2026-05-07 17:36 | 43.47917 | -76.14038 | 4486 ft | 200 kts | 232° |
| 2026-05-07 17:36 | 43.47033 | -76.15483 | 4476 ft | 191 kts | 233° |
| 2026-05-07 17:37 | 43.46202 | -76.16836 | 4471 ft | 181 kts | 233° |
| 2026-05-07 17:37 | 43.45402 | -76.18138 | 4490 ft | 177 kts | 233° |
| 2026-05-07 17:37 | 43.44615 | -76.19415 | 4480 ft | 172 kts | 233° |
| 2026-05-07 17:37 | 43.43841 | -76.20659 | 4473 ft | 170 kts | 232° |
| 2026-05-07 17:38 | 43.42972 | -76.21751 | 4502 ft | 170 kts | 222° |
| 2026-05-07 17:38 | 43.42033 | -76.22760 | 4477 ft | 170 kts | 222° |
| 2026-05-07 17:38 | 43.41141 | -76.23707 | 4345 ft | 149 kts | 222° |
| 2026-05-07 17:38 | 43.40373 | -76.24476 | 4085 ft | 129 kts | 217° |
| 2026-05-07 17:39 | 43.39533 | -76.24900 | 3824 ft | 128 kts | 202° |
| 2026-05-07 17:39 | 43.38688 | -76.25264 | 3579 ft | 127 kts | 204° |
| 2026-05-07 17:39 | 43.37869 | -76.25673 | 3334 ft | 124 kts | 210° |
| 2026-05-07 17:39 | 43.37014 | -76.26217 | 3111 ft | 151 kts | 210° |
| 2026-05-07 17:40 | 43.36113 | -76.26788 | 2859 ft | 138 kts | 211° |
| 2026-05-07 17:40 | 43.35246 | -76.27323 | 2554 ft | 140 kts | 210° |
| 2026-05-07 17:40 | 43.34266 | -76.27924 | 2532 ft | 164 kts | 209° |
| 2026-05-07 17:40 | 43.33187 | -76.28635 | 2497 ft | 176 kts | 209° |
| 2026-05-07 17:41 | 43.32082 | -76.29362 | 2490 ft | 177 kts | 211° |
| 2026-05-07 17:41 | 43.30964 | -76.30094 | 2511 ft | 179 kts | 210° |
| 2026-05-07 17:41 | 43.29836 | -76.30836 | 2506 ft | 181 kts | 210° |
| 2026-05-07 17:41 | 43.28694 | -76.31588 | 2486 ft | 181 kts | 210° |
| 2026-05-07 17:42 | 43.27573 | -76.32326 | 2485 ft | 178 kts | 210° |
| 2026-05-07 17:42 | 43.26448 | -76.33069 | 2490 ft | 182 kts | 211° |
| 2026-05-07 17:42 | 43.25302 | -76.33832 | 2487 ft | 182 kts | 210° |
| 2026-05-07 17:42 | 43.24174 | -76.34574 | 2506 ft | 179 kts | 206° |
| 2026-05-07 17:43 | 43.22988 | -76.35225 | 2429 ft | 190 kts | 207° |
| 2026-05-07 17:43 | 43.22261 | -76.36485 | 2695 ft | 158 kts | 266° |
| 2026-05-07 17:43 | 43.22762 | -76.37766 | 2582 ft | 176 kts | 325° |
| 2026-05-07 17:43 | 43.24005 | -76.38222 | 2304 ft | 188 kts | 356° |
| 2026-05-07 17:44 | 43.25209 | -76.37655 | 2212 ft | 175 kts | 39° |
| 2026-05-07 17:44 | 43.25563 | -76.36340 | 2149 ft | 142 kts | 94° |
| 2026-05-07 17:44 | 43.25383 | -76.35038 | 1948 ft | 135 kts | 105° |
| 2026-05-07 17:44 | 43.25063 | -76.33766 | 1860 ft | 149 kts | 109° |
| 2026-05-07 17:45 | 43.24707 | -76.32432 | 1837 ft | 159 kts | 109° |
| 2026-05-07 17:45 | 43.24292 | -76.30962 | 1812 ft | 166 kts | 113° |
| 2026-05-07 17:45 | 43.23812 | -76.29527 | 1876 ft | 163 kts | 116° |
| 2026-05-07 17:45 | 43.23321 | -76.28146 | 1961 ft | 162 kts | 113° |
| 2026-05-07 17:46 | 43.22825 | -76.26750 | 2151 ft | 164 kts | 115° |
| 2026-05-07 17:46 | 43.22313 | -76.25321 | 2132 ft | 169 kts | 116° |
| 2026-05-07 17:46 | 43.21560 | -76.24135 | 2166 ft | 165 kts | 141° |
| 2026-05-07 17:46 | 43.20722 | -76.23069 | 2126 ft | 168 kts | 138° |
| 2026-05-07 17:47 | 43.19865 | -76.21943 | 2028 ft | 175 kts | 138° |
| 2026-05-07 17:47 | 43.19012 | -76.20750 | 2019 ft | 175 kts | 136° |
| 2026-05-07 17:47 | 43.18181 | -76.19542 | 1943 ft | 164 kts | 135° |
| 2026-05-07 17:47 | 43.17423 | -76.18374 | 1996 ft | 163 kts | 133° |
| 2026-05-07 17:48 | 43.16660 | -76.17203 | 1904 ft | 166 kts | 133° |
| 2026-05-07 17:48 | 43.15923 | -76.16101 | 1797 ft | 142 kts | 136° |
| 2026-05-07 17:48 | 43.15241 | -76.15171 | 1684 ft | 135 kts | 139° |
| 2026-05-07 17:48 | 43.14598 | -76.14302 | 1542 ft | 125 kts | 135° |
| 2026-05-07 17:49 | 43.14023 | -76.13378 | 1384 ft | 138 kts | 131° |
| 2026-05-07 17:49 | 43.13463 | -76.12226 | 1290 ft | 150 kts | 112° |
| 2026-05-07 17:49 | 43.13215 | -76.10829 | 1228 ft | 152 kts | 94° |
| 2026-05-07 17:49 | 43.13153 | -76.09397 | 1215 ft | 151 kts | 91° |
| 2026-05-07 17:50 | 43.13109 | -76.08119 | 1138 ft | 128 kts | 91° |
| 2026-05-07 17:50 | 43.12985 | -76.06974 | 1101 ft | 116 kts | 128° |
| 2026-05-07 17:50 | 43.12291 | -76.06587 | 1044 ft | 109 kts | 177° |
| 2026-05-07 17:50 | 43.11539 | -76.06460 | 1045 ft | 105 kts | 189° |
| 2026-05-07 17:51 | 43.11022 | -76.07023 | 878 ft | 97 kts | 257° |
| 2026-05-07 17:51 | 43.10970 | -76.07856 | 721 ft | 82 kts | 269° |